KCLW/CLW METAR and TAF weather

Enter ICAO airport designator
Station Type Date Time Source
KCLW METAR 2022/01/29 13:35 UTC NOAA

KCLW 291335Z AUTO 32016G28KT 10SM BKN048 08/M02 A3017 RMK AO2


Station Type Date Time Source
KCLW Decoded METAR 2022/01/29 13:35 UTC NOAA

Station name not available
Jan 29, 2022 - 08:35 AM EST / 2022.01.29 1335 UTC
Wind: from the NW (320 degrees) at 18 MPH (16 KT) gusting to 32 MPH (28 KT):0
Visibility: 10 mile(s):0
Sky conditions: mostly cloudy
Temperature: 46 F (8 C)
Dew Point: 28 F (-2 C)
Relative Humidity: 49%
Pressure (altimeter): 30.17 in. Hg (1021 hPa)
ob: KCLW 291335Z AUTO 32016G28KT 10SM BKN048 08/M02 A3017 RMK AO2
cycle: 13

Station Type Date Time Source
KCLW TAF UTC NOAA

Error!

Example: see airport list